createdAt,value
2022-12-31T00:01:15.267Z,0.95
2022-12-31T00:03:42.583Z,1.20
2022-12-31T00:06:23.363Z,1.00
2022-12-31T00:08:58.584Z,1.30
2022-12-31T00:11:26.397Z,0.55
2022-12-31T00:13:53.519Z,0.70
2022-12-31T00:16:28.897Z,0.88
2022-12-31T00:18:59.172Z,0.25
2022-12-31T00:21:26.917Z,0.95
2022-12-31T00:23:53.900Z,0.30
2022-12-31T00:26:22.509Z,0.85
2022-12-31T00:28:49.438Z,0.70
2022-12-31T00:31:18.782Z,0.60
2022-12-31T00:33:45.919Z,0.60
2022-12-31T00:36:17.818Z,0.65
2022-12-31T00:38:45.775Z,0.55
2022-12-31T00:41:12.846Z,0.80
2022-12-31T00:43:39.755Z,0.55
2022-12-31T00:46:08.774Z,0.55
2022-12-31T00:48:36.100Z,0.82
2022-12-31T00:51:03.741Z,0.70
2022-12-31T00:53:30.814Z,0.73
2022-12-31T00:56:09.070Z,0.80
2022-12-31T00:58:35.913Z,0.70
2022-12-31T01:01:23.479Z,0.75
2022-12-31T01:03:58.170Z,0.55
2022-12-31T01:06:25.061Z,0.73
2022-12-31T01:08:52.020Z,0.70
2022-12-31T01:11:19.197Z,0.88
2022-12-31T01:13:47.154Z,0.50
2022-12-31T01:16:14.356Z,1.00
2022-12-31T01:18:41.358Z,0.80
2022-12-31T01:21:10.290Z,0.80
2022-12-31T01:23:37.220Z,1.00
2022-12-31T01:26:05.327Z,0.70
2022-12-31T01:28:32.241Z,0.90
2022-12-31T01:30:59.348Z,0.80
2022-12-31T01:33:26.284Z,0.75
2022-12-31T01:35:53.170Z,0.52
2022-12-31T01:38:20.043Z,0.40
2022-12-31T01:40:46.896Z,0.52
2022-12-31T01:43:19.578Z,0.85
2022-12-31T01:45:47.504Z,1.50
2022-12-31T01:48:15.378Z,0.40
2022-12-31T01:50:43.009Z,0.70
2022-12-31T01:53:10.250Z,0.75
2022-12-31T01:55:42.207Z,0.75
2022-12-31T01:58:23.517Z,0.55
2022-12-31T02:00:50.349Z,1.10
2022-12-31T02:03:17.380Z,0.65
2022-12-31T02:05:54.777Z,0.90
2022-12-31T02:08:21.687Z,0.80
2022-12-31T02:10:48.849Z,0.93
2022-12-31T02:13:18.656Z,1.00
2022-12-31T02:15:56.368Z,0.80
2022-12-31T02:18:50.671Z,0.80
2022-12-31T02:21:26.566Z,0.52
2022-12-31T02:24:22.755Z,0.50
2022-12-31T02:27:14.972Z,0.73
2022-12-31T02:30:06.484Z,0.65
2022-12-31T02:32:51.364Z,0.47
2022-12-31T02:35:47.468Z,0.60
2022-12-31T02:38:18.439Z,0.70
2022-12-31T02:40:45.315Z,0.90
2022-12-31T02:43:12.124Z,0.55
2022-12-31T02:45:41.526Z,0.80
2022-12-31T02:48:40.718Z,1.10
2022-12-31T02:51:16.584Z,0.60
2022-12-31T02:54:32.657Z,0.68
2022-12-31T02:57:08.348Z,0.60
2022-12-31T03:00:15.793Z,0.30
2022-12-31T03:02:43.646Z,0.45
2022-12-31T03:05:10.565Z,0.25
2022-12-31T03:07:37.388Z,0.45
2022-12-31T03:10:04.544Z,0.30
2022-12-31T03:12:48.266Z,0.50
2022-12-31T03:15:24.975Z,0.30
2022-12-31T03:18:03.894Z,0.50
2022-12-31T03:20:53.088Z,0.32
2022-12-31T03:23:36.431Z,0.30
2022-12-31T03:26:04.092Z,0.32
2022-12-31T03:28:30.992Z,0.55
2022-12-31T03:31:00.757Z,0.70
2022-12-31T03:33:33.289Z,0.22
2022-12-31T03:36:02.764Z,0.73
2022-12-31T03:38:29.698Z,0.10
2022-12-31T03:40:56.656Z,0.30
2022-12-31T03:43:23.757Z,0.20
2022-12-31T03:45:53.731Z,0.30
2022-12-31T03:48:23.642Z,0.20
2022-12-31T03:50:50.762Z,0.08
2022-12-31T03:53:17.684Z,0.10
2022-12-31T03:55:45.041Z,0.10
2022-12-31T03:58:12.063Z,0.10
2022-12-31T04:00:39.052Z,0.10
2022-12-31T04:03:06.206Z,0.10
2022-12-31T04:05:33.853Z,0.00
2022-12-31T04:08:00.771Z,0.10
2022-12-31T04:10:27.743Z,0.10
2022-12-31T04:12:54.750Z,0.10
2022-12-31T04:15:21.879Z,0.10
2022-12-31T04:17:48.825Z,0.10
2022-12-31T04:20:18.866Z,0.10
2022-12-31T04:22:45.798Z,0.20
2022-12-31T04:25:13.091Z,0.10
2022-12-31T04:27:40.456Z,0.08
2022-12-31T04:30:08.132Z,0.10
2022-12-31T04:32:34.970Z,0.03
2022-12-31T04:35:01.817Z,0.30
2022-12-31T04:37:28.651Z,0.13
2022-12-31T04:39:58.991Z,0.10
2022-12-31T04:42:28.802Z,0.10
2022-12-31T04:44:55.771Z,0.17
2022-12-31T04:47:23.945Z,0.25
2022-12-31T04:49:51.036Z,0.20
2022-12-31T04:52:17.838Z,0.20
2022-12-31T04:54:47.318Z,0.30
2022-12-31T04:57:14.219Z,0.40
2022-12-31T04:59:41.095Z,0.40
2022-12-31T05:02:08.332Z,0.80
2022-12-31T05:04:35.425Z,0.22
2022-12-31T05:07:02.320Z,0.55
2022-12-31T05:09:29.791Z,0.70
2022-12-31T05:11:56.649Z,0.60
2022-12-31T05:14:23.527Z,0.98
2022-12-31T05:16:50.652Z,0.73
2022-12-31T05:19:17.567Z,0.50
2022-12-31T05:22:04.392Z,0.45
2022-12-31T05:24:31.323Z,0.75
2022-12-31T05:26:58.127Z,0.77
2022-12-31T05:29:24.975Z,1.05
2022-12-31T05:31:52.370Z,0.50
2022-12-31T05:34:19.378Z,0.50
2022-12-31T05:36:46.227Z,0.50
2022-12-31T05:39:13.066Z,1.13
2022-12-31T05:41:39.896Z,0.85
2022-12-31T05:44:06.820Z,0.68
2022-12-31T05:46:33.703Z,1.20
2022-12-31T05:49:00.764Z,0.50
2022-12-31T05:51:30.682Z,0.80
2022-12-31T05:53:57.531Z,0.95
2022-12-31T05:56:24.387Z,0.90
2022-12-31T05:58:51.215Z,0.50
2022-12-31T06:01:18.150Z,0.50
2022-12-31T06:03:45.775Z,0.90
2022-12-31T06:06:12.729Z,0.90
2022-12-31T06:08:39.616Z,0.73
2022-12-31T06:11:06.464Z,0.70
2022-12-31T06:13:33.373Z,0.82
2022-12-31T06:16:06.533Z,1.58
2022-12-31T06:18:33.396Z,1.10
2022-12-31T06:21:02.555Z,1.55
2022-12-31T06:23:29.463Z,0.68
2022-12-31T06:26:03.932Z,0.63
2022-12-31T06:28:30.859Z,1.08
2022-12-31T06:31:06.996Z,0.90
2022-12-31T06:33:35.133Z,0.68
2022-12-31T06:36:03.405Z,1.77
2022-12-31T06:38:31.535Z,1.38
2022-12-31T06:40:58.457Z,1.67
2022-12-31T06:43:25.403Z,1.15
2022-12-31T06:45:52.226Z,1.23
2022-12-31T06:48:19.080Z,1.05
2022-12-31T06:50:45.842Z,1.15
2022-12-31T06:53:12.667Z,0.80
2022-12-31T06:55:39.799Z,0.73
2022-12-31T06:58:07.028Z,1.00
2022-12-31T07:00:36.051Z,1.00
2022-12-31T07:03:40.901Z,1.20
2022-12-31T07:06:16.480Z,1.10
2022-12-31T07:08:53.604Z,0.68
2022-12-31T07:11:26.790Z,0.88
2022-12-31T07:14:11.610Z,0.73
2022-12-31T07:16:53.902Z,0.65
2022-12-31T07:19:42.652Z,0.70
2022-12-31T07:22:15.031Z,0.70
2022-12-31T07:24:45.751Z,0.40
2022-12-31T07:27:15.404Z,0.77
2022-12-31T07:30:00.954Z,0.45
2022-12-31T07:32:50.705Z,0.75
2022-12-31T07:35:22.185Z,0.75
2022-12-31T07:37:56.970Z,0.65
2022-12-31T07:40:51.007Z,0.60
2022-12-31T07:43:36.510Z,0.60
2022-12-31T07:46:06.533Z,0.52
2022-12-31T07:48:33.603Z,1.13
2022-12-31T07:51:00.695Z,0.80
2022-12-31T07:53:27.811Z,1.05
2022-12-31T07:56:05.692Z,1.75
2022-12-31T07:58:56.034Z,0.82
2022-12-31T08:01:57.066Z,1.42
2022-12-31T08:04:29.293Z,1.17
2022-12-31T08:07:17.972Z,1.00
2022-12-31T08:10:00.881Z,1.27
2022-12-31T08:12:28.186Z,1.23
2022-12-31T08:14:55.237Z,1.27
2022-12-31T08:17:22.519Z,1.25
2022-12-31T08:19:49.718Z,1.13
2022-12-31T08:22:31.985Z,1.13
2022-12-31T08:25:20.041Z,0.98
2022-12-31T08:28:05.475Z,1.58
2022-12-31T08:30:50.558Z,1.75
2022-12-31T08:33:25.863Z,0.90
2022-12-31T08:35:56.797Z,1.02
2022-12-31T08:38:50.457Z,1.27
2022-12-31T08:41:23.432Z,1.08
2022-12-31T08:44:24.036Z,1.00
2022-12-31T08:47:03.306Z,1.40
2022-12-31T08:49:32.908Z,1.67
2022-12-31T08:52:03.405Z,0.98
2022-12-31T08:54:30.635Z,1.27
2022-12-31T08:57:18.705Z,0.98
2022-12-31T09:00:14.326Z,0.75
2022-12-31T09:03:00.143Z,0.80
2022-12-31T09:05:41.681Z,0.82
2022-12-31T09:08:29.188Z,1.30
2022-12-31T09:11:17.701Z,1.17
2022-12-31T09:14:09.585Z,1.48
2022-12-31T09:16:42.539Z,1.63
2022-12-31T09:19:10.509Z,1.60
2022-12-31T09:21:38.347Z,1.27
2022-12-31T09:24:09.327Z,1.27
2022-12-31T09:26:51.165Z,0.88
2022-12-31T09:29:43.240Z,0.77
2022-12-31T09:32:45.678Z,1.40
2022-12-31T09:35:31.041Z,1.35
2022-12-31T09:38:33.666Z,1.27
2022-12-31T09:41:06.530Z,1.02
2022-12-31T09:44:27.211Z,1.30
2022-12-31T09:47:00.155Z,0.82
2022-12-31T09:49:45.072Z,1.47
2022-12-31T09:52:17.783Z,0.90
2022-12-31T09:54:57.489Z,0.98
2022-12-31T09:57:27.361Z,0.93
2022-12-31T10:00:08.165Z,1.73
2022-12-31T10:03:05.266Z,1.25
2022-12-31T10:05:38.289Z,1.15
2022-12-31T10:08:20.277Z,0.77
2022-12-31T10:10:50.452Z,1.38
2022-12-31T10:13:35.492Z,0.98
2022-12-31T10:16:20.968Z,1.98
2022-12-31T10:19:29.181Z,1.50
2022-12-31T10:22:19.023Z,0.80
2022-12-31T10:24:56.117Z,1.17
2022-12-31T10:27:52.160Z,0.75
2022-12-31T10:30:23.271Z,1.33
2022-12-31T10:33:05.078Z,0.73
2022-12-31T10:35:49.276Z,0.98
2022-12-31T10:38:34.803Z,0.88
2022-12-31T10:41:53.119Z,0.75
2022-12-31T10:44:22.985Z,0.90
2022-12-31T10:47:05.026Z,0.70
2022-12-31T10:49:57.169Z,0.55
2022-12-31T10:52:49.032Z,0.60
2022-12-31T10:55:40.903Z,0.57
2022-12-31T10:58:29.399Z,0.70
2022-12-31T11:01:22.285Z,0.40
2022-12-31T11:04:10.587Z,0.70
2022-12-31T11:06:52.457Z,0.38
2022-12-31T11:09:41.700Z,0.30
2022-12-31T11:12:47.652Z,0.20
2022-12-31T11:15:50.332Z,0.28
2022-12-31T11:18:35.883Z,0.20
2022-12-31T11:21:27.796Z,0.38
2022-12-31T11:24:33.631Z,0.28
2022-12-31T11:27:18.891Z,0.30
2022-12-31T11:29:54.504Z,0.65
2022-12-31T11:32:48.553Z,0.40
2022-12-31T11:35:40.492Z,0.35
2022-12-31T11:38:30.954Z,0.35
2022-12-31T11:41:03.303Z,0.30
2022-12-31T11:43:46.175Z,0.13
2022-12-31T11:46:28.238Z,0.40
2022-12-31T11:49:14.353Z,0.22
2022-12-31T11:52:26.749Z,0.20
2022-12-31T11:55:15.351Z,0.40
2022-12-31T11:57:42.993Z,0.35
2022-12-31T12:00:16.990Z,0.40
2022-12-31T12:02:49.170Z,0.32
2022-12-31T12:05:18.629Z,0.20
2022-12-31T12:07:45.672Z,0.30
2022-12-31T12:10:31.808Z,0.30
2022-12-31T12:13:00.663Z,0.28
2022-12-31T12:15:32.205Z,0.50
2022-12-31T12:18:01.739Z,0.40
2022-12-31T12:20:33.109Z,0.70
2022-12-31T12:23:01.333Z,0.70
2022-12-31T12:25:37.758Z,0.77
2022-12-31T12:28:23.663Z,0.70
2022-12-31T12:31:14.610Z,0.85
2022-12-31T12:33:43.215Z,1.35
2022-12-31T12:36:14.589Z,1.50
2022-12-31T12:38:41.891Z,0.80
2022-12-31T12:41:27.972Z,0.73
2022-12-31T12:44:08.577Z,1.48
2022-12-31T12:46:48.401Z,1.30
2022-12-31T12:49:24.457Z,0.90
2022-12-31T12:51:51.327Z,0.98
2022-12-31T12:54:30.621Z,1.33
2022-12-31T12:57:08.055Z,0.77
2022-12-31T13:00:09.228Z,1.88
2022-12-31T13:03:13.515Z,1.58
2022-12-31T13:05:46.179Z,1.60
2022-12-31T13:08:37.340Z,1.45
2022-12-31T13:11:16.026Z,0.93
2022-12-31T13:14:16.925Z,1.23
2022-12-31T13:16:48.353Z,1.13
2022-12-31T13:19:18.129Z,1.10
2022-12-31T13:21:53.917Z,1.10
2022-12-31T13:24:51.167Z,1.38
2022-12-31T13:27:27.422Z,1.73
2022-12-31T13:29:55.536Z,1.05
2022-12-31T13:32:41.546Z,2.33
2022-12-31T13:35:27.867Z,1.30
2022-12-31T13:38:07.022Z,1.98
2022-12-31T13:40:48.964Z,1.52
2022-12-31T13:43:34.638Z,1.52
2022-12-31T13:46:08.814Z,1.42
2022-12-31T13:48:39.430Z,1.10
2022-12-31T13:51:28.320Z,1.52
2022-12-31T13:54:15.490Z,2.45
2022-12-31T13:56:42.722Z,2.05
2022-12-31T13:59:48.983Z,1.52
2022-12-31T14:02:34.798Z,1.00
2022-12-31T14:05:27.692Z,1.73
2022-12-31T14:07:55.454Z,1.25
2022-12-31T14:10:34.676Z,1.73
2022-12-31T14:13:12.372Z,2.33
2022-12-31T14:15:46.047Z,1.45
2022-12-31T14:18:32.224Z,2.20
2022-12-31T14:21:09.519Z,2.33
2022-12-31T14:24:04.423Z,1.90
2022-12-31T14:26:39.656Z,1.83
2022-12-31T14:29:15.608Z,1.90
2022-12-31T14:31:51.510Z,1.33
2022-12-31T14:34:37.742Z,1.55
2022-12-31T14:37:28.803Z,1.45
2022-12-31T14:40:14.962Z,1.52
2022-12-31T14:42:53.586Z,2.05
2022-12-31T14:45:38.600Z,1.83
2022-12-31T14:48:29.335Z,2.47
2022-12-31T14:50:57.109Z,2.38
2022-12-31T14:53:25.561Z,2.60
2022-12-31T14:56:03.453Z,2.30
2022-12-31T14:58:32.940Z,2.35
2022-12-31T15:01:00.685Z,2.92
2022-12-31T15:03:44.944Z,2.70
2022-12-31T15:06:27.817Z,2.55
2022-12-31T15:09:16.099Z,3.08
2022-12-31T15:12:00.975Z,2.83
2022-12-31T15:14:50.405Z,2.90
2022-12-31T15:17:36.236Z,3.03
2022-12-31T15:20:07.959Z,2.85
2022-12-31T15:22:45.240Z,3.30
2022-12-31T15:25:38.438Z,4.10
2022-12-31T15:28:21.414Z,2.45
2022-12-31T15:30:54.760Z,3.60
2022-12-31T15:33:43.520Z,3.35
2022-12-31T15:36:23.662Z,3.45
2022-12-31T15:38:51.128Z,4.28
2022-12-31T15:41:34.093Z,3.60
2022-12-31T15:44:09.971Z,2.83
2022-12-31T15:46:38.570Z,3.42
2022-12-31T15:49:25.708Z,5.10
2022-12-31T15:52:12.794Z,2.75
2022-12-31T15:54:43.219Z,3.90
2022-12-31T15:57:21.330Z,3.17
2022-12-31T15:59:56.858Z,2.85
2022-12-31T16:02:24.978Z,3.63
2022-12-31T16:04:52.208Z,3.03
2022-12-31T16:07:19.230Z,4.00
2022-12-31T16:09:51.525Z,3.40
2022-12-31T16:12:27.773Z,3.53
2022-12-31T16:14:58.693Z,2.42
2022-12-31T16:17:39.828Z,2.67
2022-12-31T16:20:24.244Z,3.70
2022-12-31T16:22:53.090Z,3.38
2022-12-31T16:25:36.554Z,4.00
2022-12-31T16:28:03.602Z,2.80
2022-12-31T16:30:31.686Z,3.00
2022-12-31T16:33:01.275Z,2.92
2022-12-31T16:35:32.786Z,2.95
2022-12-31T16:38:12.299Z,3.38
2022-12-31T16:40:40.230Z,3.05
2022-12-31T16:43:23.781Z,3.70
2022-12-31T16:45:50.835Z,2.90
2022-12-31T16:48:18.599Z,3.38
2022-12-31T16:50:46.164Z,3.35
2022-12-31T16:53:13.280Z,2.92
2022-12-31T16:55:41.473Z,3.05
2022-12-31T16:58:25.722Z,3.92
2022-12-31T17:00:52.726Z,3.47
2022-12-31T17:03:23.685Z,2.85
2022-12-31T17:06:17.495Z,3.10
2022-12-31T17:09:00.997Z,2.97
2022-12-31T17:11:30.610Z,2.90
2022-12-31T17:14:07.057Z,2.95
2022-12-31T17:16:39.598Z,3.15
2022-12-31T17:19:06.555Z,3.20
2022-12-31T17:21:34.389Z,3.38
2022-12-31T17:24:05.303Z,3.05
2022-12-31T17:26:36.919Z,3.60
2022-12-31T17:29:05.290Z,3.40
2022-12-31T17:31:37.542Z,2.53
2022-12-31T17:34:13.479Z,2.53
2022-12-31T17:37:00.025Z,3.40
2022-12-31T17:39:27.776Z,3.17
2022-12-31T17:41:56.522Z,3.78
2022-12-31T17:44:29.387Z,2.58
2022-12-31T17:46:58.771Z,2.43
2022-12-31T17:49:32.081Z,3.78
2022-12-31T17:52:02.281Z,3.08
2022-12-31T17:54:31.326Z,2.13
2022-12-31T17:56:58.167Z,2.35
2022-12-31T17:59:25.868Z,2.80
2022-12-31T18:02:04.035Z,2.75
2022-12-31T18:04:35.474Z,3.33
2022-12-31T18:07:09.430Z,2.72
2022-12-31T18:09:36.335Z,2.55
2022-12-31T18:12:03.673Z,3.30
2022-12-31T18:14:30.640Z,2.92
2022-12-31T18:16:57.566Z,2.53
2022-12-31T18:22:15.924Z,2.65
2022-12-31T18:24:43.632Z,4.15
2022-12-31T18:27:19.975Z,2.70
2022-12-31T18:29:47.015Z,3.42
2022-12-31T18:32:27.362Z,2.97
2022-12-31T18:34:54.617Z,3.60
2022-12-31T18:37:22.426Z,2.42
2022-12-31T18:39:49.487Z,2.67
2022-12-31T18:42:20.164Z,1.48
2022-12-31T18:44:47.278Z,2.78
2022-12-31T18:47:19.476Z,2.58
2022-12-31T18:49:48.682Z,3.10
2022-12-31T18:52:25.135Z,2.65
2022-12-31T18:54:52.091Z,3.40
2022-12-31T18:57:19.043Z,2.15
2022-12-31T18:59:45.996Z,2.90
2022-12-31T19:02:16.612Z,2.15
2022-12-31T19:04:43.765Z,2.80
2022-12-31T19:07:10.652Z,3.38
2022-12-31T19:09:45.929Z,2.83
2022-12-31T19:12:14.109Z,2.70
2022-12-31T19:14:44.089Z,2.78
2022-12-31T19:19:36.699Z,2.30
2022-12-31T19:22:03.638Z,3.00
2022-12-31T19:24:30.635Z,2.33
2022-12-31T19:26:57.750Z,2.70
2022-12-31T19:29:26.842Z,3.35
2022-12-31T19:31:54.144Z,3.17
2022-12-31T19:34:21.233Z,2.80
2022-12-31T19:36:48.195Z,3.22
2022-12-31T19:39:17.518Z,2.65
2022-12-31T19:41:45.643Z,1.67
2022-12-31T19:44:19.443Z,2.70
2022-12-31T19:49:16.116Z,2.00
2022-12-31T19:51:45.230Z,2.90
2022-12-31T19:54:15.152Z,2.72
2022-12-31T19:56:43.691Z,3.53
2022-12-31T19:59:13.464Z,2.70
2022-12-31T20:01:40.761Z,1.95
2022-12-31T20:04:07.754Z,2.53
2022-12-31T20:06:34.676Z,2.65
2022-12-31T20:09:02.842Z,3.67
2022-12-31T20:11:29.698Z,2.58
2022-12-31T20:13:56.686Z,3.17
2022-12-31T20:16:26.852Z,3.45
2022-12-31T20:18:54.042Z,2.95
2022-12-31T20:21:23.522Z,2.20
2022-12-31T20:23:50.949Z,2.35
2022-12-31T20:26:18.401Z,3.33
2022-12-31T20:28:45.391Z,2.55
2022-12-31T20:31:14.740Z,3.00
2022-12-31T20:33:41.778Z,2.35
2022-12-31T20:36:10.146Z,3.20
2022-12-31T20:38:37.147Z,2.13
2022-12-31T20:41:09.065Z,1.67
2022-12-31T20:43:36.458Z,1.95
2022-12-31T20:46:15.210Z,1.85
2022-12-31T20:48:43.790Z,2.38
2022-12-31T20:51:10.737Z,2.92
2022-12-31T20:53:37.634Z,1.77
2022-12-31T20:56:05.690Z,1.55
2022-12-31T20:58:35.019Z,2.10
2022-12-31T21:01:05.136Z,1.83
2022-12-31T21:06:19.535Z,2.08
2022-12-31T21:08:46.836Z,2.65
2022-12-31T21:11:32.469Z,1.33
2022-12-31T21:13:59.832Z,1.90
2022-12-31T21:16:27.055Z,1.85
2022-12-31T21:18:54.369Z,2.10
2022-12-31T21:21:21.374Z,2.25
2022-12-31T21:23:48.367Z,1.98
2022-12-31T21:26:15.304Z,1.42
2022-12-31T21:28:42.373Z,2.13
2022-12-31T21:31:10.525Z,1.45
2022-12-31T21:33:37.370Z,1.83
2022-12-31T21:36:05.135Z,1.33
2022-12-31T21:38:35.088Z,1.90
2022-12-31T21:41:03.279Z,1.17
2022-12-31T21:43:30.314Z,1.50
2022-12-31T21:46:06.974Z,1.55
2022-12-31T21:48:34.090Z,0.75
2022-12-31T21:51:14.249Z,1.30
2022-12-31T21:53:41.299Z,0.70
2022-12-31T21:56:09.269Z,1.42
2022-12-31T21:58:43.291Z,1.55
2022-12-31T22:01:38.195Z,1.20
2022-12-31T22:04:05.476Z,1.48
2022-12-31T22:06:33.295Z,1.60
2022-12-31T22:09:00.290Z,1.85
2022-12-31T22:11:27.862Z,1.45
2022-12-31T22:13:55.108Z,1.27
2022-12-31T22:16:22.259Z,1.92
2022-12-31T22:18:49.577Z,1.70
2022-12-31T22:21:21.144Z,1.92
2022-12-31T22:23:55.447Z,1.65
2022-12-31T22:26:24.346Z,1.48
2022-12-31T22:28:51.439Z,2.20
2022-12-31T22:31:26.947Z,1.30
2022-12-31T22:33:53.962Z,1.33
2022-12-31T22:36:22.268Z,0.95
2022-12-31T22:38:49.602Z,1.23
2022-12-31T22:41:18.523Z,1.10
2022-12-31T22:43:48.094Z,1.02
2022-12-31T22:46:20.119Z,0.90
2022-12-31T22:48:47.435Z,0.95
2022-12-31T22:51:17.442Z,0.90
2022-12-31T22:53:44.512Z,1.13
2022-12-31T22:56:14.584Z,0.95
2022-12-31T22:58:41.528Z,0.63
2022-12-31T23:01:14.522Z,1.13
2022-12-31T23:03:42.459Z,1.00
2022-12-31T23:06:09.485Z,1.42
2022-12-31T23:08:39.130Z,1.33
2022-12-31T23:11:11.997Z,1.08
2022-12-31T23:13:58.625Z,1.52
2022-12-31T23:16:44.961Z,1.08
2022-12-31T23:19:30.810Z,1.23
2022-12-31T23:22:15.905Z,0.98
2022-12-31T23:24:42.823Z,1.33
2022-12-31T23:27:09.902Z,1.92
2022-12-31T23:29:46.020Z,1.48
2022-12-31T23:32:15.229Z,1.50
2022-12-31T23:34:42.837Z,0.93
2022-12-31T23:37:09.736Z,1.15
2022-12-31T23:39:36.668Z,0.80
2022-12-31T23:42:03.734Z,0.90
2022-12-31T23:44:30.782Z,0.70
2022-12-31T23:47:00.843Z,1.27
2022-12-31T23:49:27.797Z,1.48
2022-12-31T23:51:54.730Z,0.80
2022-12-31T23:54:21.651Z,1.23
2022-12-31T23:56:48.583Z,0.82
2022-12-31T23:59:15.455Z,0.85
